sensor_id;sensor_type;location;lat;lon;timestamp;temperature;humidity
22623;DHT22;11478;51.094;7.030;2022-12-29T00:11:18;9.00;99.90
22623;DHT22;11478;51.094;7.030;2022-12-29T00:13:44;9.10;99.90
22623;DHT22;11478;51.094;7.030;2022-12-29T00:16:29;9.10;99.90
22623;DHT22;11478;51.094;7.030;2022-12-29T00:18:58;9.10;99.90
22623;DHT22;11478;51.094;7.030;2022-12-29T00:21:28;9.10;99.90
22623;DHT22;11478;51.094;7.030;2022-12-29T00:24:18;9.10;99.90
22623;DHT22;11478;51.094;7.030;2022-12-29T00:29:49;9.10;99.90
22623;DHT22;11478;51.094;7.030;2022-12-29T00:32:34;9.10;99.90
22623;DHT22;11478;51.094;7.030;2022-12-29T00:35:29;9.20;99.90
22623;DHT22;11478;51.094;7.030;2022-12-29T00:38:03;9.20;99.90
22623;DHT22;11478;51.094;7.030;2022-12-29T00:40:48;9.30;99.90
22623;DHT22;11478;51.094;7.030;2022-12-29T00:43:34;9.20;99.90
22623;DHT22;11478;51.094;7.030;2022-12-29T00:46:18;9.20;99.90
22623;DHT22;11478;51.094;7.030;2022-12-29T00:48:48;9.20;99.90
22623;DHT22;11478;51.094;7.030;2022-12-29T00:51:32;9.30;99.90
22623;DHT22;11478;51.094;7.030;2022-12-29T00:53:59;9.30;99.90
22623;DHT22;11478;51.094;7.030;2022-12-29T00:56:24;9.30;99.90
22623;DHT22;11478;51.094;7.030;2022-12-29T00:59:07;9.40;99.90
22623;DHT22;11478;51.094;7.030;2022-12-29T01:01:44;9.40;99.90
22623;DHT22;11478;51.094;7.030;2022-12-29T01:04:10;9.40;99.90
22623;DHT22;11478;51.094;7.030;2022-12-29T01:06:40;9.40;99.90
22623;DHT22;11478;51.094;7.030;2022-12-29T01:09:07;9.30;99.90
22623;DHT22;11478;51.094;7.030;2022-12-29T01:11:53;9.40;99.90
22623;DHT22;11478;51.094;7.030;2022-12-29T01:14:19;9.40;99.90
22623;DHT22;11478;51.094;7.030;2022-12-29T01:16:45;9.40;99.90
22623;DHT22;11478;51.094;7.030;2022-12-29T01:19:11;9.40;99.90
22623;DHT22;11478;51.094;7.030;2022-12-29T01:21:46;9.40;99.90
22623;DHT22;11478;51.094;7.030;2022-12-29T01:24:13;9.40;99.90
22623;DHT22;11478;51.094;7.030;2022-12-29T01:26:42;9.40;99.90
22623;DHT22;11478;51.094;7.030;2022-12-29T01:29:09;9.40;99.90
22623;DHT22;11478;51.094;7.030;2022-12-29T01:31:35;9.40;99.90
22623;DHT22;11478;51.094;7.030;2022-12-29T01:34:01;9.40;99.90
22623;DHT22;11478;51.094;7.030;2022-12-29T01:36:34;9.40;99.90
22623;DHT22;11478;51.094;7.030;2022-12-29T01:39:00;9.40;99.90
22623;DHT22;11478;51.094;7.030;2022-12-29T01:41:26;9.40;99.90
22623;DHT22;11478;51.094;7.030;2022-12-29T01:43:53;9.40;99.90
22623;DHT22;11478;51.094;7.030;2022-12-29T01:46:48;9.40;99.90
22623;DHT22;11478;51.094;7.030;2022-12-29T01:49:27;9.30;99.90
22623;DHT22;11478;51.094;7.030;2022-12-29T01:51:58;9.30;99.90
22623;DHT22;11478;51.094;7.030;2022-12-29T01:54:30;9.30;99.90
22623;DHT22;11478;51.094;7.030;2022-12-29T01:57:00;9.30;99.90
22623;DHT22;11478;51.094;7.030;2022-12-29T01:59:34;9.30;99.90
22623;DHT22;11478;51.094;7.030;2022-12-29T02:02:07;9.20;99.90
22623;DHT22;11478;51.094;7.030;2022-12-29T02:04:35;9.20;99.90
22623;DHT22;11478;51.094;7.030;2022-12-29T02:07:11;9.20;99.90
22623;DHT22;11478;51.094;7.030;2022-12-29T02:09:51;9.20;99.90
22623;DHT22;11478;51.094;7.030;2022-12-29T02:12:20;9.20;99.90
22623;DHT22;11478;51.094;7.030;2022-12-29T02:14:49;9.20;99.90
22623;DHT22;11478;51.094;7.030;2022-12-29T02:23:30;9.00;99.90
22623;DHT22;11478;51.094;7.030;2022-12-29T02:37:46;9.00;99.90
22623;DHT22;11478;51.094;7.030;2022-12-29T02:52:37;9.00;99.90
22623;DHT22;11478;51.094;7.030;2022-12-29T02:55:05;8.90;99.90
22623;DHT22;11478;51.094;7.030;2022-12-29T03:09:38;8.90;99.90
22623;DHT22;11478;51.094;7.030;2022-12-29T03:12:16;8.90;99.90
22623;DHT22;11478;51.094;7.030;2022-12-29T03:17:41;8.80;99.90
22623;DHT22;11478;51.094;7.030;2022-12-29T03:20:10;8.80;99.90
22623;DHT22;11478;51.094;7.030;2022-12-29T03:22:48;8.80;99.90
22623;DHT22;11478;51.094;7.030;2022-12-29T03:25:42;8.80;99.90
22623;DHT22;11478;51.094;7.030;2022-12-29T03:28:41;8.90;99.90
22623;DHT22;11478;51.094;7.030;2022-12-29T03:31:09;8.90;99.90
22623;DHT22;11478;51.094;7.030;2022-12-29T03:33:41;8.90;99.90
22623;DHT22;11478;51.094;7.030;2022-12-29T03:36:12;8.90;99.90
22623;DHT22;11478;51.094;7.030;2022-12-29T03:41:11;9.00;99.90
22623;DHT22;11478;51.094;7.030;2022-12-29T03:43:39;9.00;99.90
22623;DHT22;11478;51.094;7.030;2022-12-29T03:46:05;9.10;99.90
22623;DHT22;11478;51.094;7.030;2022-12-29T03:48:31;9.10;99.90
22623;DHT22;11478;51.094;7.030;2022-12-29T03:50:58;9.10;99.90
22623;DHT22;11478;51.094;7.030;2022-12-29T03:53:28;9.10;99.90
22623;DHT22;11478;51.094;7.030;2022-12-29T03:55:54;9.20;99.90
22623;DHT22;11478;51.094;7.030;2022-12-29T03:58:34;9.20;99.90
22623;DHT22;11478;51.094;7.030;2022-12-29T04:01:00;9.20;99.90
22623;DHT22;11478;51.094;7.030;2022-12-29T04:06:55;9.30;99.90
22623;DHT22;11478;51.094;7.030;2022-12-29T04:09:21;9.40;99.90
22623;DHT22;11478;51.094;7.030;2022-12-29T04:11:47;9.40;99.90
22623;DHT22;11478;51.094;7.030;2022-12-29T04:14:15;9.30;99.90
22623;DHT22;11478;51.094;7.030;2022-12-29T04:16:41;9.40;99.90
22623;DHT22;11478;51.094;7.030;2022-12-29T04:19:08;9.40;99.90
22623;DHT22;11478;51.094;7.030;2022-12-29T04:21:34;9.30;99.90
22623;DHT22;11478;51.094;7.030;2022-12-29T04:24:04;9.30;99.90
22623;DHT22;11478;51.094;7.030;2022-12-29T04:26:32;9.30;99.90
22623;DHT22;11478;51.094;7.030;2022-12-29T04:29:00;9.30;99.90
22623;DHT22;11478;51.094;7.030;2022-12-29T04:31:30;9.30;99.90
22623;DHT22;11478;51.094;7.030;2022-12-29T04:33:58;9.30;99.90
22623;DHT22;11478;51.094;7.030;2022-12-29T04:36:25;9.30;99.90
22623;DHT22;11478;51.094;7.030;2022-12-29T04:38:57;9.30;99.90
22623;DHT22;11478;51.094;7.030;2022-12-29T04:41:23;9.30;99.90
22623;DHT22;11478;51.094;7.030;2022-12-29T04:43:50;9.30;99.90
22623;DHT22;11478;51.094;7.030;2022-12-29T04:46:16;9.40;99.90
22623;DHT22;11478;51.094;7.030;2022-12-29T04:48:45;9.40;99.90
22623;DHT22;11478;51.094;7.030;2022-12-29T04:51:11;9.30;99.90
22623;DHT22;11478;51.094;7.030;2022-12-29T04:53:37;9.30;99.90
22623;DHT22;11478;51.094;7.030;2022-12-29T04:56:03;9.40;99.90
22623;DHT22;11478;51.094;7.030;2022-12-29T04:58:32;9.40;99.90
22623;DHT22;11478;51.094;7.030;2022-12-29T05:00:58;9.40;99.90
22623;DHT22;11478;51.094;7.030;2022-12-29T05:03:23;9.30;99.90
22623;DHT22;11478;51.094;7.030;2022-12-29T05:05:52;9.30;99.90
22623;DHT22;11478;51.094;7.030;2022-12-29T05:08:18;9.30;99.90
22623;DHT22;11478;51.094;7.030;2022-12-29T05:10:52;9.20;99.90
22623;DHT22;11478;51.094;7.030;2022-12-29T05:13:19;9.20;99.90
22623;DHT22;11478;51.094;7.030;2022-12-29T05:15:50;9.20;99.90
22623;DHT22;11478;51.094;7.030;2022-12-29T05:18:16;9.10;99.90
22623;DHT22;11478;51.094;7.030;2022-12-29T05:20:42;9.10;99.90
22623;DHT22;11478;51.094;7.030;2022-12-29T05:23:13;9.10;99.90
22623;DHT22;11478;51.094;7.030;2022-12-29T05:25:39;9.10;99.90
22623;DHT22;11478;51.094;7.030;2022-12-29T05:28:05;9.10;99.90
22623;DHT22;11478;51.094;7.030;2022-12-29T05:30:31;9.10;99.90
22623;DHT22;11478;51.094;7.030;2022-12-29T05:32:56;9.10;99.90
22623;DHT22;11478;51.094;7.030;2022-12-29T05:35:22;9.10;99.90
22623;DHT22;11478;51.094;7.030;2022-12-29T05:37:48;9.10;99.90
22623;DHT22;11478;51.094;7.030;2022-12-29T05:40:14;9.20;99.90
22623;DHT22;11478;51.094;7.030;2022-12-29T05:42:40;9.20;99.90
22623;DHT22;11478;51.094;7.030;2022-12-29T05:45:06;9.30;99.90
22623;DHT22;11478;51.094;7.030;2022-12-29T05:47:34;9.30;99.90
22623;DHT22;11478;51.094;7.030;2022-12-29T05:50:01;9.40;99.90
22623;DHT22;11478;51.094;7.030;2022-12-29T05:52:37;9.40;99.90
22623;DHT22;11478;51.094;7.030;2022-12-29T05:55:03;9.40;99.90
22623;DHT22;11478;51.094;7.030;2022-12-29T05:57:30;9.50;99.90
22623;DHT22;11478;51.094;7.030;2022-12-29T05:59:55;9.60;99.90
22623;DHT22;11478;51.094;7.030;2022-12-29T06:02:24;9.70;99.90
22623;DHT22;11478;51.094;7.030;2022-12-29T06:04:52;9.70;99.90
22623;DHT22;11478;51.094;7.030;2022-12-29T06:07:22;9.70;99.90
22623;DHT22;11478;51.094;7.030;2022-12-29T06:09:48;9.70;99.90
22623;DHT22;11478;51.094;7.030;2022-12-29T06:12:14;9.60;99.90
22623;DHT22;11478;51.094;7.030;2022-12-29T06:14:40;9.60;99.90
22623;DHT22;11478;51.094;7.030;2022-12-29T06:17:08;9.60;99.90
22623;DHT22;11478;51.094;7.030;2022-12-29T06:19:35;9.60;99.90
22623;DHT22;11478;51.094;7.030;2022-12-29T06:22:14;9.50;99.90
22623;DHT22;11478;51.094;7.030;2022-12-29T06:24:40;9.50;99.90
22623;DHT22;11478;51.094;7.030;2022-12-29T06:27:05;9.50;99.90
22623;DHT22;11478;51.094;7.030;2022-12-29T06:29:31;9.50;99.90
22623;DHT22;11478;51.094;7.030;2022-12-29T06:31:58;9.50;99.90
22623;DHT22;11478;51.094;7.030;2022-12-29T06:34:24;9.60;99.90
22623;DHT22;11478;51.094;7.030;2022-12-29T06:36:51;9.60;99.90
22623;DHT22;11478;51.094;7.030;2022-12-29T06:39:20;9.60;99.90
22623;DHT22;11478;51.094;7.030;2022-12-29T06:41:46;9.60;99.90
22623;DHT22;11478;51.094;7.030;2022-12-29T06:44:12;9.60;99.90
22623;DHT22;11478;51.094;7.030;2022-12-29T06:46:43;9.60;99.90
22623;DHT22;11478;51.094;7.030;2022-12-29T06:49:09;9.70;99.90
22623;DHT22;11478;51.094;7.030;2022-12-29T06:51:36;9.90;99.90
22623;DHT22;11478;51.094;7.030;2022-12-29T06:54:11;10.00;99.90
22623;DHT22;11478;51.094;7.030;2022-12-29T06:56:43;10.10;99.90
22623;DHT22;11478;51.094;7.030;2022-12-29T06:59:09;10.10;99.90
22623;DHT22;11478;51.094;7.030;2022-12-29T07:01:38;10.10;99.90
22623;DHT22;11478;51.094;7.030;2022-12-29T07:04:04;10.10;99.90
22623;DHT22;11478;51.094;7.030;2022-12-29T07:06:32;10.00;99.90
22623;DHT22;11478;51.094;7.030;2022-12-29T07:34:44;9.90;99.90
22623;DHT22;11478;51.094;7.030;2022-12-29T07:37:14;10.00;99.90
22623;DHT22;11478;51.094;7.030;2022-12-29T07:39:42;10.00;99.90
22623;DHT22;11478;51.094;7.030;2022-12-29T07:42:08;9.90;99.90
22623;DHT22;11478;51.094;7.030;2022-12-29T07:44:42;9.90;99.90
22623;DHT22;11478;51.094;7.030;2022-12-29T07:47:08;9.90;99.90
22623;DHT22;11478;51.094;7.030;2022-12-29T07:49:37;9.90;99.90
22623;DHT22;11478;51.094;7.030;2022-12-29T07:52:03;9.90;99.90
22623;DHT22;11478;51.094;7.030;2022-12-29T07:54:32;9.90;99.90
22623;DHT22;11478;51.094;7.030;2022-12-29T07:56:58;9.90;99.90
22623;DHT22;11478;51.094;7.030;2022-12-29T07:59:27;9.90;99.90
22623;DHT22;11478;51.094;7.030;2022-12-29T08:01:56;9.90;99.90
22623;DHT22;11478;51.094;7.030;2022-12-29T08:04:22;9.90;99.90
22623;DHT22;11478;51.094;7.030;2022-12-29T08:06:48;9.90;99.90
22623;DHT22;11478;51.094;7.030;2022-12-29T08:09:18;9.90;99.90
22623;DHT22;11478;51.094;7.030;2022-12-29T08:11:44;9.90;99.90
22623;DHT22;11478;51.094;7.030;2022-12-29T08:14:19;9.90;99.90
22623;DHT22;11478;51.094;7.030;2022-12-29T08:16:47;9.90;99.90
22623;DHT22;11478;51.094;7.030;2022-12-29T08:22:40;9.90;99.90
22623;DHT22;11478;51.094;7.030;2022-12-29T08:25:07;9.80;99.90
22623;DHT22;11478;51.094;7.030;2022-12-29T08:27:32;9.70;99.90
22623;DHT22;11478;51.094;7.030;2022-12-29T08:29:58;9.70;99.90
22623;DHT22;11478;51.094;7.030;2022-12-29T08:32:26;9.60;99.90
22623;DHT22;11478;51.094;7.030;2022-12-29T08:34:53;9.60;99.90
22623;DHT22;11478;51.094;7.030;2022-12-29T08:37:19;9.60;99.90
22623;DHT22;11478;51.094;7.030;2022-12-29T08:39:48;9.60;99.90
22623;DHT22;11478;51.094;7.030;2022-12-29T08:42:22;9.60;99.90
22623;DHT22;11478;51.094;7.030;2022-12-29T08:45:06;9.70;99.90
22623;DHT22;11478;51.094;7.030;2022-12-29T08:47:33;9.70;99.90
22623;DHT22;11478;51.094;7.030;2022-12-29T08:50:02;9.80;99.90
22623;DHT22;11478;51.094;7.030;2022-12-29T08:52:28;9.70;99.90
22623;DHT22;11478;51.094;7.030;2022-12-29T08:54:59;9.70;99.90
22623;DHT22;11478;51.094;7.030;2022-12-29T08:57:24;9.60;99.90
22623;DHT22;11478;51.094;7.030;2022-12-29T08:59:52;9.60;99.90
22623;DHT22;11478;51.094;7.030;2022-12-29T09:02:18;9.60;99.90
22623;DHT22;11478;51.094;7.030;2022-12-29T09:04:49;9.60;99.90
22623;DHT22;11478;51.094;7.030;2022-12-29T09:07:18;9.60;99.90
22623;DHT22;11478;51.094;7.030;2022-12-29T09:09:44;9.70;99.90
22623;DHT22;11478;51.094;7.030;2022-12-29T09:12:10;9.60;99.90
22623;DHT22;11478;51.094;7.030;2022-12-29T09:14:36;9.70;99.90
22623;DHT22;11478;51.094;7.030;2022-12-29T09:17:02;9.70;99.90
22623;DHT22;11478;51.094;7.030;2022-12-29T09:19:49;9.70;99.90
22623;DHT22;11478;51.094;7.030;2022-12-29T09:22:15;9.80;99.90
22623;DHT22;11478;51.094;7.030;2022-12-29T09:24:42;9.90;99.90
22623;DHT22;11478;51.094;7.030;2022-12-29T09:27:09;9.90;99.90
22623;DHT22;11478;51.094;7.030;2022-12-29T09:29:43;10.00;99.90
22623;DHT22;11478;51.094;7.030;2022-12-29T09:32:18;10.00;99.90
22623;DHT22;11478;51.094;7.030;2022-12-29T09:34:48;10.10;99.90
22623;DHT22;11478;51.094;7.030;2022-12-29T09:37:14;10.30;99.90
22623;DHT22;11478;51.094;7.030;2022-12-29T09:39:40;10.30;99.90
22623;DHT22;11478;51.094;7.030;2022-12-29T09:45:15;10.50;99.90
22623;DHT22;11478;51.094;7.030;2022-12-29T09:47:45;10.50;99.90
22623;DHT22;11478;51.094;7.030;2022-12-29T09:50:28;10.70;99.90
22623;DHT22;11478;51.094;7.030;2022-12-29T09:54:04;10.70;99.90
22623;DHT22;11478;51.094;7.030;2022-12-29T09:56:00;10.80;99.90
22623;DHT22;11478;51.094;7.030;2022-12-29T09:58:42;10.90;99.90
22623;DHT22;11478;51.094;7.030;2022-12-29T10:03:57;11.00;99.90
22623;DHT22;11478;51.094;7.030;2022-12-29T10:09:34;11.00;99.90
22623;DHT22;11478;51.094;7.030;2022-12-29T10:21:10;10.90;99.90
22623;DHT22;11478;51.094;7.030;2022-12-29T10:23:41;10.80;99.90
22623;DHT22;11478;51.094;7.030;2022-12-29T10:26:15;10.70;99.90
22623;DHT22;11478;51.094;7.030;2022-12-29T10:28:54;10.70;99.90
22623;DHT22;11478;51.094;7.030;2022-12-29T10:34:17;10.70;99.90
22623;DHT22;11478;51.094;7.030;2022-12-29T10:39:52;10.70;99.90
22623;DHT22;11478;51.094;7.030;2022-12-29T10:42:33;10.70;99.90
22623;DHT22;11478;51.094;7.030;2022-12-29T10:45:00;10.70;99.90
22623;DHT22;11478;51.094;7.030;2022-12-29T10:47:33;10.70;99.90
22623;DHT22;11478;51.094;7.030;2022-12-29T10:50:02;10.70;99.90
22623;DHT22;11478;51.094;7.030;2022-12-29T10:52:28;10.80;99.90
22623;DHT22;11478;51.094;7.030;2022-12-29T10:55:19;10.80;99.90
22623;DHT22;11478;51.094;7.030;2022-12-29T10:57:47;10.80;99.90
22623;DHT22;11478;51.094;7.030;2022-12-29T11:00:21;10.80;99.90
22623;DHT22;11478;51.094;7.030;2022-12-29T11:08:58;11.00;99.90
22623;DHT22;11478;51.094;7.030;2022-12-29T11:11:34;11.20;99.90
22623;DHT22;11478;51.094;7.030;2022-12-29T11:14:17;11.20;99.90
22623;DHT22;11478;51.094;7.030;2022-12-29T11:16:43;11.20;99.90
22623;DHT22;11478;51.094;7.030;2022-12-29T11:22:52;11.30;99.90
22623;DHT22;11478;51.094;7.030;2022-12-29T11:25:18;11.40;99.90
22623;DHT22;11478;51.094;7.030;2022-12-29T11:28:14;11.40;99.90
22623;DHT22;11478;51.094;7.030;2022-12-29T11:30:40;11.50;99.90
22623;DHT22;11478;51.094;7.030;2022-12-29T11:33:07;11.50;99.90
22623;DHT22;11478;51.094;7.030;2022-12-29T11:35:43;11.50;99.90
22623;DHT22;11478;51.094;7.030;2022-12-29T11:38:23;11.50;99.90
22623;DHT22;11478;51.094;7.030;2022-12-29T11:40:52;11.50;99.90
22623;DHT22;11478;51.094;7.030;2022-12-29T11:43:43;11.40;99.90
22623;DHT22;11478;51.094;7.030;2022-12-29T11:46:40;11.40;99.90
22623;DHT22;11478;51.094;7.030;2022-12-29T11:49:13;11.30;99.90
22623;DHT22;11478;51.094;7.030;2022-12-29T11:51:46;11.30;99.90
22623;DHT22;11478;51.094;7.030;2022-12-29T11:56:52;11.20;99.90
22623;DHT22;11478;51.094;7.030;2022-12-29T12:02:00;11.10;99.90
22623;DHT22;11478;51.094;7.030;2022-12-29T12:04:32;11.10;99.90
22623;DHT22;11478;51.094;7.030;2022-12-29T12:07:08;11.10;99.90
22623;DHT22;11478;51.094;7.030;2022-12-29T12:12:25;11.10;99.90
22623;DHT22;11478;51.094;7.030;2022-12-29T12:14:56;11.10;99.90
22623;DHT22;11478;51.094;7.030;2022-12-29T12:17:51;11.10;99.90
22623;DHT22;11478;51.094;7.030;2022-12-29T12:26:20;11.00;99.90
22623;DHT22;11478;51.094;7.030;2022-12-29T12:34:51;11.00;99.90
22623;DHT22;11478;51.094;7.030;2022-12-29T12:59:44;11.00;99.90
22623;DHT22;11478;51.094;7.030;2022-12-29T13:14:36;10.90;99.90
22623;DHT22;11478;51.094;7.030;2022-12-29T13:22:34;10.90;99.90
22623;DHT22;11478;51.094;7.030;2022-12-29T13:31:40;10.80;99.90
22623;DHT22;11478;51.094;7.030;2022-12-29T13:33:56;10.90;99.90
22623;DHT22;11478;51.094;7.030;2022-12-29T13:36:44;10.90;99.90
22623;DHT22;11478;51.094;7.030;2022-12-29T13:39:17;10.90;99.90
22623;DHT22;11478;51.094;7.030;2022-12-29T13:42:04;10.90;99.90
22623;DHT22;11478;51.094;7.030;2022-12-29T13:44:34;10.90;99.90
22623;DHT22;11478;51.094;7.030;2022-12-29T13:49:55;10.90;99.90
22623;DHT22;11478;51.094;7.030;2022-12-29T13:52:39;10.90;99.90
22623;DHT22;11478;51.094;7.030;2022-12-29T13:57:52;10.80;99.90
22623;DHT22;11478;51.094;7.030;2022-12-29T14:00:22;10.80;99.90
22623;DHT22;11478;51.094;7.030;2022-12-29T14:06:05;10.70;99.90
22623;DHT22;11478;51.094;7.030;2022-12-29T14:08:36;10.70;99.90
22623;DHT22;11478;51.094;7.030;2022-12-29T14:11:09;10.70;99.90
22623;DHT22;11478;51.094;7.030;2022-12-29T14:13:39;10.60;99.90
22623;DHT22;11478;51.094;7.030;2022-12-29T14:16:37;10.60;99.90
22623;DHT22;11478;51.094;7.030;2022-12-29T14:19:10;10.60;99.90
22623;DHT22;11478;51.094;7.030;2022-12-29T14:21:37;10.70;99.90
22623;DHT22;11478;51.094;7.030;2022-12-29T14:24:41;10.70;99.90
22623;DHT22;11478;51.094;7.030;2022-12-29T14:29:44;10.70;99.90
22623;DHT22;11478;51.094;7.030;2022-12-29T14:34:52;10.60;99.90
22623;DHT22;11478;51.094;7.030;2022-12-29T14:37:32;10.60;99.90
22623;DHT22;11478;51.094;7.030;2022-12-29T14:40:18;10.60;99.90
22623;DHT22;11478;51.094;7.030;2022-12-29T14:42:45;10.60;99.90
22623;DHT22;11478;51.094;7.030;2022-12-29T14:47:44;10.40;99.90
22623;DHT22;11478;51.094;7.030;2022-12-29T14:53:00;10.30;99.90
22623;DHT22;11478;51.094;7.030;2022-12-29T14:55:54;10.30;99.90
22623;DHT22;11478;51.094;7.030;2022-12-29T14:58:44;10.30;99.90
22623;DHT22;11478;51.094;7.030;2022-12-29T15:01:19;10.20;99.90
22623;DHT22;11478;51.094;7.030;2022-12-29T15:04:00;10.20;99.90
22623;DHT22;11478;51.094;7.030;2022-12-29T15:06:30;10.20;99.90
22623;DHT22;11478;51.094;7.030;2022-12-29T15:14:37;10.20;99.90
22623;DHT22;11478;51.094;7.030;2022-12-29T15:20:32;10.30;99.90
22623;DHT22;11478;51.094;7.030;2022-12-29T15:23:03;10.30;99.90
22623;DHT22;11478;51.094;7.030;2022-12-29T15:25:35;10.20;99.90
22623;DHT22;11478;51.094;7.030;2022-12-29T15:28:06;10.20;99.90
22623;DHT22;11478;51.094;7.030;2022-12-29T15:30:32;10.20;99.90
22623;DHT22;11478;51.094;7.030;2022-12-29T15:32:58;10.10;99.90
22623;DHT22;11478;51.094;7.030;2022-12-29T15:35:33;10.10;99.90
22623;DHT22;11478;51.094;7.030;2022-12-29T15:38:01;10.10;99.90
22623;DHT22;11478;51.094;7.030;2022-12-29T15:40:39;10.00;99.90
22623;DHT22;11478;51.094;7.030;2022-12-29T15:46:03;10.00;99.90
22623;DHT22;11478;51.094;7.030;2022-12-29T15:48:30;10.00;99.90
22623;DHT22;11478;51.094;7.030;2022-12-29T15:50:57;10.00;99.90
22623;DHT22;11478;51.094;7.030;2022-12-29T15:53:31;10.00;99.90
22623;DHT22;11478;51.094;7.030;2022-12-29T15:56:06;9.90;99.90
22623;DHT22;11478;51.094;7.030;2022-12-29T15:58:39;9.90;99.90
22623;DHT22;11478;51.094;7.030;2022-12-29T16:01:23;9.90;99.90
22623;DHT22;11478;51.094;7.030;2022-12-29T16:03:51;9.80;99.90
22623;DHT22;11478;51.094;7.030;2022-12-29T16:06:30;9.70;99.90
22623;DHT22;11478;51.094;7.030;2022-12-29T16:11:56;9.70;99.90
22623;DHT22;11478;51.094;7.030;2022-12-29T16:15:03;9.60;99.90
22623;DHT22;11478;51.094;7.030;2022-12-29T16:17:34;9.50;99.90
22623;DHT22;11478;51.094;7.030;2022-12-29T16:20:05;9.50;99.90
22623;DHT22;11478;51.094;7.030;2022-12-29T16:22:42;9.50;99.90
22623;DHT22;11478;51.094;7.030;2022-12-29T16:25:33;9.40;99.90
22623;DHT22;11478;51.094;7.030;2022-12-29T16:28:02;9.40;99.90
22623;DHT22;11478;51.094;7.030;2022-12-29T16:31:13;9.30;99.90
22623;DHT22;11478;51.094;7.030;2022-12-29T16:33:45;9.20;99.90
22623;DHT22;11478;51.094;7.030;2022-12-29T16:41:40;8.90;99.90
22623;DHT22;11478;51.094;7.030;2022-12-29T16:44:33;8.80;99.90
22623;DHT22;11478;51.094;7.030;2022-12-29T16:49:53;8.50;99.90
22623;DHT22;11478;51.094;7.030;2022-12-29T16:52:29;8.30;99.90
22623;DHT22;11478;51.094;7.030;2022-12-29T16:55:17;8.20;99.90
22623;DHT22;11478;51.094;7.030;2022-12-29T16:57:44;8.10;99.90
22623;DHT22;11478;51.094;7.030;2022-12-29T17:00:34;8.10;99.90
22623;DHT22;11478;51.094;7.030;2022-12-29T17:03:02;8.00;99.90
22623;DHT22;11478;51.094;7.030;2022-12-29T17:05:31;8.10;99.90
22623;DHT22;11478;51.094;7.030;2022-12-29T17:07:58;8.10;99.90
22623;DHT22;11478;51.094;7.030;2022-12-29T17:10:26;8.10;99.90
22623;DHT22;11478;51.094;7.030;2022-12-29T17:13:13;8.00;99.90
22623;DHT22;11478;51.094;7.030;2022-12-29T17:15:38;8.00;99.90
22623;DHT22;11478;51.094;7.030;2022-12-29T17:18:07;8.00;99.90
22623;DHT22;11478;51.094;7.030;2022-12-29T17:20:35;8.00;99.90
22623;DHT22;11478;51.094;7.030;2022-12-29T17:23:29;8.00;99.90
22623;DHT22;11478;51.094;7.030;2022-12-29T17:25:56;8.00;99.90
22623;DHT22;11478;51.094;7.030;2022-12-29T17:28:28;8.10;99.90
22623;DHT22;11478;51.094;7.030;2022-12-29T17:31:01;8.10;99.90
22623;DHT22;11478;51.094;7.030;2022-12-29T17:33:30;8.10;99.90
22623;DHT22;11478;51.094;7.030;2022-12-29T17:35:59;8.10;99.90
22623;DHT22;11478;51.094;7.030;2022-12-29T17:38:28;8.10;99.90
22623;DHT22;11478;51.094;7.030;2022-12-29T17:40:54;8.10;99.90
22623;DHT22;11478;51.094;7.030;2022-12-29T17:43:20;8.10;99.90
22623;DHT22;11478;51.094;7.030;2022-12-29T17:48:47;8.10;99.90
22623;DHT22;11478;51.094;7.030;2022-12-29T17:51:19;8.10;99.90
22623;DHT22;11478;51.094;7.030;2022-12-29T17:53:45;8.10;99.90
22623;DHT22;11478;51.094;7.030;2022-12-29T17:56:30;8.10;99.90
22623;DHT22;11478;51.094;7.030;2022-12-29T17:58:56;8.10;99.90
22623;DHT22;11478;51.094;7.030;2022-12-29T18:01:39;8.10;99.90
22623;DHT22;11478;51.094;7.030;2022-12-29T18:04:05;8.10;99.90
22623;DHT22;11478;51.094;7.030;2022-12-29T18:06:33;8.00;99.90
22623;DHT22;11478;51.094;7.030;2022-12-29T18:08:59;8.10;99.90
22623;DHT22;11478;51.094;7.030;2022-12-29T18:11:25;8.10;99.90
22623;DHT22;11478;51.094;7.030;2022-12-29T18:13:53;8.10;99.90
22623;DHT22;11478;51.094;7.030;2022-12-29T18:16:21;8.10;99.90
22623;DHT22;11478;51.094;7.030;2022-12-29T18:18:47;8.10;99.90
22623;DHT22;11478;51.094;7.030;2022-12-29T18:21:21;8.10;99.90
22623;DHT22;11478;51.094;7.030;2022-12-29T18:23:47;8.10;99.90
22623;DHT22;11478;51.094;7.030;2022-12-29T18:26:20;8.10;99.90
22623;DHT22;11478;51.094;7.030;2022-12-29T18:28:49;8.10;99.90
22623;DHT22;11478;51.094;7.030;2022-12-29T18:31:29;8.20;99.90
22623;DHT22;11478;51.094;7.030;2022-12-29T18:33:56;8.20;99.90
22623;DHT22;11478;51.094;7.030;2022-12-29T18:36:24;8.30;99.90
22623;DHT22;11478;51.094;7.030;2022-12-29T18:38:50;8.20;99.90
22623;DHT22;11478;51.094;7.030;2022-12-29T18:41:26;8.20;99.90
22623;DHT22;11478;51.094;7.030;2022-12-29T18:43:56;8.10;99.90
22623;DHT22;11478;51.094;7.030;2022-12-29T18:46:30;8.10;99.90
22623;DHT22;11478;51.094;7.030;2022-12-29T18:48:55;8.00;99.90
22623;DHT22;11478;51.094;7.030;2022-12-29T18:51:34;8.00;99.90
22623;DHT22;11478;51.094;7.030;2022-12-29T18:53:59;8.00;99.90
22623;DHT22;11478;51.094;7.030;2022-12-29T18:56:25;7.90;99.90
22623;DHT22;11478;51.094;7.030;2022-12-29T18:58:51;7.90;99.90
22623;DHT22;11478;51.094;7.030;2022-12-29T19:01:33;7.80;99.90
22623;DHT22;11478;51.094;7.030;2022-12-29T19:03:59;7.80;99.90
22623;DHT22;11478;51.094;7.030;2022-12-29T19:06:26;7.70;99.90
22623;DHT22;11478;51.094;7.030;2022-12-29T19:08:53;7.60;99.90
22623;DHT22;11478;51.094;7.030;2022-12-29T19:11:19;7.50;99.90
22623;DHT22;11478;51.094;7.030;2022-12-29T19:13:53;7.50;99.90
22623;DHT22;11478;51.094;7.030;2022-12-29T19:16:21;7.40;99.90
22623;DHT22;11478;51.094;7.030;2022-12-29T19:18:50;7.40;99.90
22623;DHT22;11478;51.094;7.030;2022-12-29T19:21:17;7.40;99.90
22623;DHT22;11478;51.094;7.030;2022-12-29T19:23:44;7.30;99.90
22623;DHT22;11478;51.094;7.030;2022-12-29T19:26:37;7.30;99.90
22623;DHT22;11478;51.094;7.030;2022-12-29T19:29:12;7.30;99.90
22623;DHT22;11478;51.094;7.030;2022-12-29T19:31:39;7.20;99.90
22623;DHT22;11478;51.094;7.030;2022-12-29T19:34:15;7.20;99.90
22623;DHT22;11478;51.094;7.030;2022-12-29T19:36:42;7.10;99.90
22623;DHT22;11478;51.094;7.030;2022-12-29T19:39:11;7.00;99.90
22623;DHT22;11478;51.094;7.030;2022-12-29T19:41:37;7.00;99.90
22623;DHT22;11478;51.094;7.030;2022-12-29T19:44:08;7.00;99.90
22623;DHT22;11478;51.094;7.030;2022-12-29T19:46:34;6.90;99.90
22623;DHT22;11478;51.094;7.030;2022-12-29T19:49:00;6.90;99.90
22623;DHT22;11478;51.094;7.030;2022-12-29T19:51:26;6.80;99.90
22623;DHT22;11478;51.094;7.030;2022-12-29T19:53:53;6.70;99.90
22623;DHT22;11478;51.094;7.030;2022-12-29T19:56:19;6.60;99.90
22623;DHT22;11478;51.094;7.030;2022-12-29T19:58:51;6.60;99.90
22623;DHT22;11478;51.094;7.030;2022-12-29T20:01:19;6.50;99.90
22623;DHT22;11478;51.094;7.030;2022-12-29T20:03:55;6.40;99.90
22623;DHT22;11478;51.094;7.030;2022-12-29T20:06:21;6.30;99.90
22623;DHT22;11478;51.094;7.030;2022-12-29T20:08:49;6.20;99.90